Terminal Aerodrome Forecast
Issued by NWS Pendleton, OR

Home | Current Version | Previous Version | Text Only | Print | Product List | Glossary On
Versions: 1 2 3 4 5 6 7 8 9 10 11 12 13 14 15 16 17 18 19 20 21 22 23 24
000
FTUS46 KPDT 100522
TAFPDT
TAF
KPDT 100522Z 1006/1106 29005KT 5SM -SHSN BR SCT020 OVC040
      TEMPO 1006/1010 -FZRA
     FM101000 28006KT 5SM -SHSN BR SCT020 OVC040
     FM101700 25009KT P6SM BKN050=

USA.gov is the U.S. government's official web portal to all federal, state and local government web resources and services.